Time;durP1;ratioP1;P1;durP2;ratioP2;P2;SDS_P1;SDS_P2;PMS_P1;PMS_P2;Temp;Humidity;BMP_temperature;BMP_pressure;BME280_temperature;BME280_humidity;BME280_pressure;Samples;Min_cycle;Max_cycle;Signal;HPM_P1;HPM_P2
2022/12/03 00:02:06;;;;;;;0.43;0.43;;;3.40;99.90;;;;;;5022928;28;20471;-75
2022/12/03 00:04:32;;;;;;;3.03;1.38;;;3.40;99.90;;;;;;5056179;28;20048;-75
2022/12/03 00:06:57;;;;;;;5.07;1.60;;;3.50;99.90;;;;;;5060669;28;20147;-75
2022/12/03 00:09:23;;;;;;;0.30;0.30;;;3.50;99.90;;;;;;5040717;28;20049;-75
2022/12/03 00:11:48;;;;;;;1.60;1.50;;;3.50;99.90;;;;;;5040338;28;20045;-75
2022/12/03 00:14:14;;;;;;;1.25;1.15;;;3.50;99.90;;;;;;5040363;28;20564;-75
2022/12/03 00:16:40;;;;;;;2.67;2.13;;;3.50;99.90;;;;;;5053139;28;20508;-75
2022/12/03 00:19:06;;;;;;;0.73;0.73;;;3.50;99.90;;;;;;5042276;28;20045;-76
2022/12/03 00:21:32;;;;;;;5.50;1.88;;;3.60;99.90;;;;;;5058420;28;20052;-75
2022/12/03 00:23:58;;;;;;;0.45;0.45;;;3.60;99.90;;;;;;5060139;28;20612;-76
2022/12/03 00:26:24;;;;;;;1.20;0.93;;;3.60;99.90;;;;;;5049712;28;20139;-75
2022/12/03 00:28:50;;;;;;;1.17;0.75;;;3.60;99.90;;;;;;5055094;28;20049;-75
2022/12/03 00:31:15;;;;;;;1.90;1.75;;;3.60;99.90;;;;;;5060673;28;20500;-76
2022/12/03 00:33:41;;;;;;;2.63;2.42;;;3.60;99.90;;;;;;5060555;28;20543;-76
2022/12/03 00:36:07;;;;;;;1.88;1.58;;;3.70;99.90;;;;;;5052919;28;20044;-76
2022/12/03 00:38:33;;;;;;;1.05;0.95;;;3.70;99.90;;;;;;5041733;28;20162;-75
2022/12/03 00:40:58;;;;;;;5.22;1.42;;;3.70;99.90;;;;;;5040880;28;20530;-75
2022/12/03 00:43:24;;;;;;;0.82;0.82;;;3.70;99.90;;;;;;5040999;28;20057;-76
2022/12/03 00:45:50;;;;;;;0.75;0.75;;;3.70;99.90;;;;;;5046829;28;20036;-75
2022/12/03 00:48:15;;;;;;;2.45;2.25;;;3.70;99.90;;;;;;5062156;28;20045;-75
2022/12/03 00:50:41;;;;;;;1.33;1.23;;;3.80;91.90;;;;;;5063667;28;20615;-75
2022/12/03 00:53:06;;;;;;;1.20;0.70;;;3.80;99.90;;;;;;5064110;28;20175;-75
2022/12/03 00:55:32;;;;;;;1.30;1.00;;;3.70;99.90;;;;;;5063060;28;20405;-75
2022/12/03 00:57:58;;;;;;;2.13;1.92;;;3.80;99.90;;;;;;5046280;28;20060;-75
2022/12/03 01:00:24;;;;;;;0.55;0.55;;;3.70;29.10;;;;;;5063755;28;20554;-76
2022/12/03 01:02:51;;;;;;;1.15;1.08;;;3.70;1.00;;;;;;5045167;28;20052;-76
2022/12/03 01:05:18;;;;;;;0.90;0.88;;;3.70;1.00;;;;;;5063751;28;20044;-76
2022/12/03 01:07:44;;;;;;;2.90;2.30;;;3.70;99.90;;;;;;5058495;28;20063;-76
2022/12/03 01:10:11;;;;;;;1.77;0.80;;;3.70;99.90;;;;;;5009590;28;20373;-76
2022/12/03 01:12:37;;;;;;;1.55;1.45;;;3.80;1.00;;;;;;5025856;28;20513;-76
2022/12/03 01:15:03;;;;;;;0.68;0.55;;;3.80;43.00;;;;;;5044254;28;20068;-76
2022/12/03 01:17:29;;;;;;;1.90;0.90;;;3.80;33.40;;;;;;5025699;28;20300;-76
2022/12/03 01:19:55;;;;;;;0.73;0.65;;;3.70;53.90;;;;;;5061555;28;20102;-76
2022/12/03 01:22:20;;;;;;;7.03;0.95;;;3.80;1.00;;;;;;5063650;28;20044;-76
2022/12/03 01:24:46;;;;;;;2.90;2.08;;;3.80;53.20;;;;;;5063322;28;20877;-76
2022/12/03 01:27:12;;;;;;;1.60;0.85;;;3.70;99.90;;;;;;5051021;28;20045;-76
2022/12/03 01:29:37;;;;;;;0.00;0.00;;;3.60;99.90;;;;;;5058175;28;20417;-76
2022/12/03 01:32:15;;;;;;;3.33;2.90;;;3.60;99.90;;;;;;5063419;28;20472;-76
2022/12/03 01:34:42;;;;;;;1.13;1.10;;;3.60;99.90;;;;;;5062918;28;20508;-76
2022/12/03 01:37:08;;;;;;;1.52;1.20;;;3.40;99.90;;;;;;5051497;28;20056;-76
2022/12/03 01:39:34;;;;;;;2.22;1.10;;;3.40;99.90;;;;;;5056787;28;20055;-76
2022/12/03 01:44:34;;;;;;;1.45;1.35;;;3.30;99.90;;;;;;5037623;28;20071;-76
2022/12/03 01:47:03;;;;;;;1.85;1.48;;;3.20;92.40;;;;;;5039978;28;20056;-76
2022/12/03 01:49:38;;;;;;;1.95;1.73;;;3.20;54.00;;;;;;5043106;28;20451;-75
2022/12/03 01:52:05;;;;;;;3.75;0.75;;;3.10;99.90;;;;;;5042914;28;20041;-76
2022/12/03 01:54:38;;;;;;;7.75;1.95;;;3.10;99.90;;;;;;5042764;28;20097;-79
2022/12/03 01:57:05;;;;;;;0.73;0.73;;;3.10;99.90;;;;;;5042762;28;20049;-76
2022/12/03 01:59:37;;;;;;;2.78;0.82;;;3.20;1.00;;;;;;5043393;28;20091;-78
2022/12/03 02:02:21;;;;;;;2.92;2.05;;;3.30;1.00;;;;;;5042541;28;20077;-76
2022/12/03 02:04:48;;;;;;;1.65;1.55;;;3.30;1.00;;;;;;5036082;28;20068;-76
2022/12/03 02:07:24;;;;;;;1.00;0.98;;;3.30;1.00;;;;;;5033813;28;20501;-76
2022/12/03 02:09:50;;;;;;;;;;;3.30;99.90;;;;;;5043835;28;20033;-76
2022/12/03 02:12:39;;;;;;;1.35;1.02;;;3.30;1.00;;;;;;5042922;28;19925;-76
2022/12/03 02:15:06;;;;;;;1.23;1.13;;;3.30;1.00;;;;;;5029965;28;20478;-76
2022/12/03 02:17:32;;;;;;;1.55;1.10;;;3.30;99.90;;;;;;5034827;28;20124;-76
2022/12/03 02:20:00;;;;;;;1.38;1.27;;;3.30;16.00;;;;;;5042042;28;20545;-76
2022/12/03 02:23:02;;;;;;;1.35;1.25;;;3.30;1.00;;;;;;5042349;28;20495;-76
2022/12/03 02:25:31;;;;;;;0.82;0.82;;;3.40;99.90;;;;;;5041814;28;20048;-76
2022/12/03 02:27:58;;;;;;;1.02;1.02;;;3.40;99.90;;;;;;5026184;28;20624;-76
2022/12/03 02:30:27;;;;;;;2.17;1.23;;;3.40;79.70;;;;;;5022698;28;20045;-76
2022/12/03 02:32:53;;;;;;;0.85;0.85;;;3.40;1.00;;;;;;5022472;28;20049;-76
2022/12/03 02:35:22;;;;;;;2.13;1.65;;;3.50;99.90;;;;;;5023535;28;20087;-76
2022/12/03 02:37:56;;;;;;;2.45;1.23;;;3.50;99.90;;;;;;5002129;28;20072;-76
2022/12/03 02:40:26;;;;;;;2.42;2.28;;;3.40;99.90;;;;;;5042361;28;20107;-76
2022/12/03 02:42:56;;;;;;;0.73;0.73;;;3.50;38.10;;;;;;5041592;28;20521;-76
2022/12/03 02:45:29;;;;;;;1.05;0.93;;;3.50;99.90;;;;;;5010779;28;20048;-76
2022/12/03 02:48:04;;;;;;;2.22;2.03;;;3.50;99.90;;;;;;5007473;28;20075;-76
2022/12/03 02:50:36;;;;;;;2.30;1.30;;;3.40;1.00;;;;;;5043084;28;20088;-76
2022/12/03 02:53:06;;;;;;;0.70;0.68;;;3.50;99.90;;;;;;5039625;28;20037;-76
2022/12/03 02:55:34;;;;;;;1.15;1.00;;;3.50;99.90;;;;;;5008538;28;20048;-76
2022/12/03 02:58:02;;;;;;;2.75;1.27;;;3.40;99.90;;;;;;5024942;28;20804;-76
2022/12/03 03:00:28;;;;;;;4.75;2.90;;;3.40;99.90;;;;;;5141660;22;20053;-86
2022/12/03 03:02:56;;;;;;;0.28;0.28;;;3.40;99.90;;;;;;5031656;28;20099;-85
2022/12/03 03:05:23;;;;;;;1.65;1.55;;;4.30;99.90;;;;;;5033001;28;20111;-85
2022/12/03 03:07:52;;;;;;;1.00;0.80;;;3.30;1.00;;;;;;5051021;28;20440;-85
2022/12/03 03:10:21;;;;;;;2.20;1.92;;;4.00;1.00;;;;;;5038078;28;20145;-85
2022/12/03 03:12:48;;;;;;;2.25;1.65;;;3.40;1.00;;;;;;5033736;28;20126;-85
2022/12/03 03:15:14;;;;;;;0.47;0.47;;;3.40;79.40;;;;;;5032905;28;20040;-84
2022/12/03 03:17:41;;;;;;;1.23;1.13;;;4.20;45.80;;;;;;5033683;28;20052;-85
2022/12/03 03:20:08;;;;;;;0.45;0.45;;;3.30;99.90;;;;;;5050248;28;20436;-85
2022/12/03 03:22:38;;;;;;;1.70;1.60;;;3.30;99.90;;;;;;5033828;28;20136;-85
2022/12/03 03:25:05;;;;;;;4.28;2.30;;;3.80;99.90;;;;;;5033333;28;20128;-85
2022/12/03 03:27:32;;;;;;;0.30;0.30;;;3.20;99.90;;;;;;5016920;28;20056;-85
2022/12/03 03:29:58;;;;;;;8.43;2.35;;;3.60;99.90;;;;;;5051720;28;20394;-85
2022/12/03 03:32:28;;;;;;;3.05;1.77;;;3.60;1.00;;;;;;5050701;28;20394;-85
2022/12/03 03:34:55;;;;;;;1.92;1.83;;;3.20;1.00;;;;;;5008982;28;20049;-86
2022/12/03 03:37:21;;;;;;;1.73;1.60;;;4.00;99.90;;;;;;5027409;28;20063;-86
2022/12/03 03:39:46;;;;;;;1.38;1.27;;;4.10;99.90;;;;;;5034016;28;20045;-85
2022/12/03 03:42:12;;;;;;;1.27;1.20;;;3.20;1.00;;;;;;5033360;28;20040;-86
2022/12/03 03:44:38;;;;;;;0.70;0.70;;;2.50;1.00;;;;;;5052384;28;20454;-86
2022/12/03 03:47:04;;;;;;;2.45;1.83;;;4.10;99.90;;;;;;5052341;28;20330;-85
2022/12/03 03:49:31;;;;;;;1.42;1.15;;;3.10;99.90;;;;;;5052239;28;20044;-86
2022/12/03 03:51:57;;;;;;;0.80;0.77;;;4.00;99.90;;;;;;5052009;28;20053;-87
2022/12/03 03:54:23;;;;;;;2.20;1.25;;;4.10;99.90;;;;;;5017852;28;20060;-85
2022/12/03 03:56:49;;;;;;;0.50;0.50;;;3.40;99.90;;;;;;5050313;28;20045;-86
2022/12/03 03:59:15;;;;;;;1.13;0.98;;;3.90;1.00;;;;;;5051912;28;20440;-86
2022/12/03 04:01:43;;;;;;;2.42;2.10;;;3.30;99.90;;;;;;5047271;28;20478;-86
2022/12/03 04:04:18;;;;;;;0.85;0.60;;;3.30;99.90;;;;;;5051311;28;20048;-85
2022/12/03 04:06:44;;;;;;;1.45;1.35;;;4.10;99.90;;;;;;5067702;28;20144;-85
2022/12/03 04:09:10;;;;;;;6.25;1.30;;;3.80;99.90;;;;;;5051221;28;20060;-85
2022/12/03 04:14:20;;;;;;;1.00;0.88;;;3.20;16.50;;;;;;5055148;28;20055;-87
2022/12/03 04:16:45;;;;;;;1.55;1.45;;;3.00;32.50;;;;;;5069641;28;20137;-86
2022/12/03 04:19:11;;;;;;;2.55;1.75;;;3.70;1.00;;;;;;5055893;28;20056;-86
2022/12/03 04:24:21;;;;;;;1.50;1.38;;;3.20;1.00;;;;;;5058230;28;20110;-86
2022/12/03 04:29:31;;;;;;;0.95;0.95;;;3.20;1.00;;;;;;5056859;28;20045;-86
2022/12/03 04:37:26;;;;;;;3.72;1.75;;;3.20;99.90;;;;;;5057744;28;20057;-85
2022/12/03 04:39:52;;;;;;;0.90;0.88;;;4.20;99.90;;;;;;5072280;28;20071;-86
2022/12/03 04:42:17;;;;;;;0.98;0.90;;;3.20;99.90;;;;;;5055563;28;20555;-85
2022/12/03 04:44:43;;;;;;;4.93;3.00;;;3.20;99.90;;;;;;5071189;28;20056;-85
2022/12/03 04:47:18;;;;;;;3.20;1.02;;;3.20;99.90;;;;;;5054138;28;20045;-85
2022/12/03 04:49:49;;;;;;;0.57;0.57;;;3.20;1.00;;;;;;5055635;28;20109;-86
2022/12/03 04:52:17;;;;;;;0.32;0.32;;;3.20;99.90;;;;;;5054931;28;20302;-85
2022/12/03 04:54:43;;;;;;;1.17;1.08;;;3.20;99.90;;;;;;5055266;28;20045;-86
2022/12/03 04:57:09;;;;;;;1.45;1.20;;;3.20;99.90;;;;;;5055816;28;20367;-85
2022/12/03 04:59:36;;;;;;;2.47;2.10;;;3.10;99.90;;;;;;5070551;28;20049;-85
2022/12/03 05:02:03;;;;;;;1.23;1.15;;;3.80;99.90;;;;;;5073153;28;20048;-86
2022/12/03 05:04:28;;;;;;;3.20;1.38;;;3.90;92.00;;;;;;5074521;28;20172;-85
2022/12/03 05:06:54;;;;;;;2.35;0.73;;;3.80;25.60;;;;;;5073609;28;20087;-85
2022/12/03 05:09:20;;;;;;;4.30;1.25;;;4.00;99.90;;;;;;5056475;28;20151;-85
2022/12/03 05:11:46;;;;;;;1.55;1.10;;;3.20;1.00;;;;;;5055586;28;20054;-85
2022/12/03 05:14:11;;;;;;;1.00;0.95;;;4.00;99.10;;;;;;5073617;28;20049;-85
2022/12/03 05:16:38;;;;;;;0.55;0.55;;;3.10;99.90;;;;;;5055120;28;20040;-85
2022/12/03 05:19:05;;;;;;;0.47;0.47;;;3.10;80.80;;;;;;5054922;28;20132;-85
2022/12/03 05:21:31;;;;;;;2.65;1.52;;;3.10;99.90;;;;;;5073153;28;20477;-85
2022/12/03 05:23:56;;;;;;;2.95;1.92;;;3.10;99.90;;;;;;5072885;28;20059;-85
2022/12/03 05:26:22;;;;;;;1.27;1.17;;;3.10;1.00;;;;;;5072750;28;20109;-85
2022/12/03 05:28:48;;;;;;;1.27;1.17;;;3.90;29.20;;;;;;5055485;28;20044;-85
2022/12/03 05:31:14;;;;;;;0.73;0.73;;;3.60;99.90;;;;;;5072667;28;20048;-86
2022/12/03 05:33:40;;;;;;;1.08;0.98;;;3.30;99.90;;;;;;5072629;28;20392;-85
2022/12/03 05:36:08;;;;;;;1.20;0.90;;;3.00;99.90;;;;;;5054689;28;20044;-85
2022/12/03 05:38:34;;;;;;;0.85;0.82;;;3.00;1.00;;;;;;5055053;28;20048;-86
2022/12/03 05:40:59;;;;;;;1.25;0.50;;;3.00;99.90;;;;;;5072975;28;20668;-86
2022/12/03 05:43:25;;;;;;;0.52;0.52;;;3.00;99.90;;;;;;5071602;28;20123;-85
2022/12/03 05:45:54;;;;;;;1.65;1.30;;;3.60;99.90;;;;;;5070314;28;20049;-85
2022/12/03 05:48:19;;;;;;;1.08;0.98;;;3.90;99.90;;;;;;5054042;28;20079;-85
2022/12/03 05:50:45;;;;;;;0.52;0.52;;;3.40;18.70;;;;;;5054105;28;20076;-86
2022/12/03 05:53:12;;;;;;;2.38;1.92;;;3.50;13.90;;;;;;5073024;28;20058;-86
2022/12/03 05:55:38;;;;;;;1.90;1.27;;;2.80;96.50;;;;;;5073062;28;20087;-86
2022/12/03 05:58:04;;;;;;;1.85;1.70;;;3.40;21.80;;;;;;5071223;28;20056;-84
2022/12/03 06:00:36;;;;;;;3.33;1.83;;;3.20;99.90;;;;;;5038286;28;20053;-86
2022/12/03 06:03:06;;;;;;;1.95;1.85;;;3.70;99.90;;;;;;5073458;28;20123;-85
2022/12/03 06:05:32;;;;;;;2.20;2.05;;;2.80;99.90;;;;;;5055203;28;20117;-86
2022/12/03 06:07:58;;;;;;;0.52;0.52;;;2.70;99.90;;;;;;5072998;28;20119;-85
2022/12/03 06:10:25;;;;;;;1.50;1.38;;;2.70;83.80;;;;;;5055466;28;20060;-86
2022/12/03 06:12:58;;;;;;;3.92;2.60;;;3.60;90.90;;;;;;5055381;28;20052;-86
2022/12/03 06:15:23;;;;;;;0.40;0.40;;;2.60;99.90;;;;;;5072084;28;20052;-85
2022/12/03 06:17:49;;;;;;;7.60;2.20;;;3.10;99.90;;;;;;5055941;28;20055;-86
2022/12/03 06:20:18;;;;;;;1.65;1.55;;;2.40;99.90;;;;;;5074392;28;20059;-86
2022/12/03 06:22:44;;;;;;;4.13;3.33;;;2.60;99.90;;;;;;5059224;28;20492;-85
2022/12/03 06:25:10;;;;;;;3.78;0.93;;;2.60;99.90;;;;;;5079428;28;20056;-85
2022/12/03 06:27:54;;;;;;;1.65;1.55;;;3.10;99.90;;;;;;5057576;28;20396;-85
2022/12/03 06:30:30;;;;;;;;;;;;;;;;;;;;;
2022/12/03 06:32:56;;;;;;;0.15;0.15;;;3.20;99.90;;;;;;5076564;28;20052;-85
2022/12/03 06:35:21;;;;;;;5.47;2.70;;;3.40;99.90;;;;;;5057297;28;20127;-86
2022/12/03 06:37:50;;;;;;;5.95;3.55;;;2.50;99.90;;;;;;5055541;28;20063;-86
2022/12/03 06:40:18;;;;;;;0.80;0.80;;;2.00;99.90;;;;;;5072851;28;20048;-87
2022/12/03 06:42:44;;;;;;;1.75;1.65;;;2.50;99.90;;;;;;5070698;28;20059;-85
2022/12/03 06:45:10;;;;;;;1.98;1.65;;;2.50;99.90;;;;;;5054872;28;20451;-86
2022/12/03 06:47:36;;;;;;;2.50;1.77;;;3.10;99.90;;;;;;5055519;28;20616;-86
2022/12/03 06:50:06;;;;;;;1.35;1.25;;;2.50;99.90;;;;;;5069466;28;20083;-86
2022/12/03 06:52:39;;;;;;;2.10;1.95;;;1.70;99.90;;;;;;5070804;28;20056;-86
2022/12/03 06:55:06;;;;;;;1.52;0.63;;;3.30;99.90;;;;;;5069293;28;20063;-85
2022/12/03 06:57:36;;;;;;;0.22;0.22;;;2.40;99.90;;;;;;5068804;28;20076;-85
2022/12/03 07:00:07;;;;;;;0.85;0.82;;;2.70;99.90;;;;;;5070084;28;20137;-86
2022/12/03 07:02:38;;;;;;;0.43;0.43;;;2.50;99.90;;;;;;5072245;28;20056;-86
2022/12/03 07:05:05;;;;;;;4.10;2.05;;;2.60;99.90;;;;;;5070215;28;20064;-86
2022/12/03 07:07:36;;;;;;;3.05;2.28;;;2.50;99.90;;;;;;5071346;28;20060;-86
2022/12/03 07:10:22;;;;;;;0.30;0.30;;;2.50;30.60;;;;;;5069447;28;20171;-86
2022/12/03 07:12:47;;;;;;;1.63;1.33;;;2.50;99.90;;;;;;5067928;28;20049;-85
2022/12/03 07:15:13;;;;;;;6.43;1.73;;;2.50;99.90;;;;;;5047849;28;20398;-85
2022/12/03 07:17:39;;;;;;;0.75;0.75;;;3.40;99.90;;;;;;5030351;28;20053;-84
2022/12/03 07:20:05;;;;;;;5.28;2.67;;;2.40;99.90;;;;;;5030336;28;20114;-85
2022/12/03 07:22:31;;;;;;;0.38;0.38;;;2.50;99.90;;;;;;5030732;28;20055;-85
2022/12/03 07:24:57;;;;;;;0.93;0.80;;;2.40;99.90;;;;;;5030239;28;21842;-85
2022/12/03 07:27:22;;;;;;;0.47;0.47;;;2.40;1.00;;;;;;5047790;28;20067;-86
2022/12/03 07:29:51;;;;;;;2.30;2.10;;;2.40;99.90;;;;;;5042742;28;20047;-85
2022/12/03 07:32:17;;;;;;;1.73;1.60;;;3.20;1.00;;;;;;5067865;28;20045;-85
2022/12/03 07:34:43;;;;;;;1.15;1.05;;;2.40;1.00;;;;;;5048972;28;20058;-85
2022/12/03 07:37:09;;;;;;;3.67;1.58;;;2.40;1.00;;;;;;5066836;28;20115;-85
2022/12/03 07:39:38;;;;;;;2.72;1.70;;;2.40;99.90;;;;;;5049662;28;20576;-85
2022/12/03 07:42:03;;;;;;;3.63;1.73;;;3.10;1.00;;;;;;5048796;28;20057;-84
2022/12/03 07:44:30;;;;;;;0.82;0.82;;;3.00;99.90;;;;;;5049086;28;20068;-84
2022/12/03 07:46:59;;;;;;;0.43;0.40;;;2.40;99.90;;;;;;5049546;28;20041;-84
2022/12/03 07:49:25;;;;;;;1.17;0.55;;;2.40;99.90;;;;;;5045799;28;20128;-85
2022/12/03 07:51:55;;;;;;;5.05;1.45;;;2.40;99.90;;;;;;5029869;28;20044;-84
2022/12/03 07:54:22;;;;;;;0.52;0.52;;;2.30;99.90;;;;;;5049480;28;20052;-85
2022/12/03 07:56:48;;;;;;;1.02;1.00;;;2.30;1.00;;;;;;5051899;28;20044;-84
2022/12/03 07:59:15;;;;;;;0.30;0.30;;;2.30;99.90;;;;;;5050888;28;20045;-85
2022/12/03 08:01:41;;;;;;;0.80;0.80;;;2.30;99.90;;;;;;5044841;28;20375;-84
2022/12/03 08:04:08;;;;;;;3.92;1.90;;;2.30;99.90;;;;;;5051496;28;20059;-88
2022/12/03 08:06:34;;;;;;;1.42;1.27;;;2.30;99.90;;;;;;5049610;28;20052;-84
2022/12/03 08:09:15;;;;;;;2.70;2.47;;;2.30;99.90;;;;;;5006455;28;20067;-84
2022/12/03 08:11:41;;;;;;;2.83;2.20;;;2.30;99.90;;;;;;5050484;28;20049;-84
2022/12/03 08:14:18;;;;;;;1.95;1.73;;;2.30;99.90;;;;;;5049545;28;20053;-84
2022/12/03 08:16:45;;;;;;;3.78;1.52;;;2.30;99.90;;;;;;5051133;28;20041;-84
2022/12/03 08:19:13;;;;;;;3.00;2.72;;;2.30;99.90;;;;;;5050631;28;20442;-84
2022/12/03 08:21:39;;;;;;;2.53;1.40;;;2.40;99.90;;;;;;5050211;28;20092;-84
2022/12/03 08:24:17;;;;;;;1.95;1.85;;;2.40;99.90;;;;;;5051216;28;20048;-84
2022/12/03 08:26:44;;;;;;;2.20;1.92;;;2.30;99.90;;;;;;5049486;28;20095;-84
2022/12/03 08:29:19;;;;;;;2.00;1.17;;;2.30;99.90;;;;;;5050212;28;20853;-84
2022/12/03 08:31:48;;;;;;;1.97;1.83;;;2.30;1.00;;;;;;5048358;28;20662;-84
2022/12/03 08:34:25;;;;;;;4.88;2.65;;;2.30;99.90;;;;;;5048390;28;20369;-83
2022/12/03 08:36:58;;;;;;;1.48;1.35;;;2.30;1.00;;;;;;5050091;28;20044;-84
2022/12/03 08:39:36;;;;;;;0.93;0.93;;;2.30;93.40;;;;;;5049476;28;20102;-84
2022/12/03 08:42:40;;;;;;;8.93;2.20;;;2.20;1.00;;;;;;5049666;28;20089;-84
2022/12/03 08:45:26;;;;;;;0.75;0.75;;;2.20;1.00;;;;;;5046665;28;20073;-84
2022/12/03 08:47:55;;;;;;;1.73;1.60;;;2.20;1.00;;;;;;5029943;28;20136;-83
2022/12/03 08:50:32;;;;;;;1.60;1.50;;;2.20;99.90;;;;;;5030877;28;20041;-84
2022/12/03 08:53:40;;;;;;;0.30;0.30;;;2.20;1.00;;;;;;5050428;28;20492;-84
2022/12/03 08:56:22;;;;;;;1.20;1.15;;;2.30;99.90;;;;;;5047203;28;20604;-84
2022/12/03 08:58:53;;;;;;;1.85;1.63;;;2.20;99.90;;;;;;5049548;28;20128;-84
2022/12/03 09:01:32;;;;;;;0.88;0.82;;;2.20;99.90;;;;;;5047779;28;20383;-84
2022/12/03 09:04:15;;;;;;;0.63;0.63;;;2.20;20.80;;;;;;5049900;28;20049;-84
2022/12/03 09:06:40;;;;;;;0.70;0.70;;;2.20;99.90;;;;;;5048123;28;20064;-84
2022/12/03 09:09:06;;;;;;;4.55;3.40;;;2.20;99.90;;;;;;5048186;28;20060;-84
2022/12/03 09:11:31;;;;;;;2.58;2.38;;;2.20;99.90;;;;;;5049700;28;20076;-84
2022/12/03 09:13:57;;;;;;;4.15;2.30;;;2.20;1.00;;;;;;5048324;28;20049;-84
2022/12/03 09:16:22;;;;;;;3.15;2.85;;;2.20;99.90;;;;;;5049602;28;20041;-84
2022/12/03 09:18:48;;;;;;;1.05;1.02;;;2.20;99.90;;;;;;5049609;28;20057;-84
2022/12/03 09:21:14;;;;;;;4.50;3.92;;;2.20;99.90;;;;;;5064914;28;20060;-84
2022/12/03 09:23:39;;;;;;;0.95;0.95;;;2.20;99.90;;;;;;5049462;28;20075;-84
2022/12/03 09:26:05;;;;;;;2.00;1.33;;;2.20;99.90;;;;;;5049109;28;20056;-84
2022/12/03 09:28:30;;;;;;;1.65;1.40;;;2.20;99.90;;;;;;5047380;28;20175;-84
2022/12/03 09:30:58;;;;;;;2.55;1.40;;;2.20;99.90;;;;;;5049333;28;20037;-84
2022/12/03 09:33:24;;;;;;;0.77;0.77;;;2.20;1.00;;;;;;5049372;28;20444;-84
2022/12/03 09:35:53;;;;;;;1.02;0.93;;;2.20;99.90;;;;;;5049060;28;20045;-84
2022/12/03 09:38:18;;;;;;;0.32;0.32;;;2.80;1.00;;;;;;5049112;28;20124;-84
2022/12/03 09:40:44;;;;;;;2.00;1.85;;;2.20;47.50;;;;;;5049238;28;20136;-84
2022/12/03 09:43:11;;;;;;;5.00;2.58;;;2.20;99.90;;;;;;5049413;28;20060;-84
2022/12/03 09:45:36;;;;;;;2.17;1.33;;;2.20;1.00;;;;;;5049355;28;20049;-84
2022/12/03 09:48:02;;;;;;;7.05;1.75;;;2.20;40.30;;;;;;5048646;28;20124;-84
2022/12/03 09:50:30;;;;;;;2.15;1.45;;;2.20;99.90;;;;;;5046998;28;20114;-84
2022/12/03 09:52:59;;;;;;;5.60;3.20;;;2.30;99.90;;;;;;5048876;28;20071;-84
2022/12/03 09:55:27;;;;;;;0.20;0.20;;;2.30;99.90;;;;;;5048760;28;20049;-85
2022/12/03 09:57:53;;;;;;;1.90;1.25;;;2.30;1.00;;;;;;5064453;28;20053;-84
2022/12/03 10:00:22;;;;;;;2.10;1.88;;;2.30;99.90;;;;;;5053430;28;20443;-84
2022/12/03 10:02:49;;;;;;;9.25;1.88;;;2.30;13.50;;;;;;5069039;28;20049;-84
2022/12/03 10:05:21;;;;;;;5.75;2.70;;;2.30;99.90;;;;;;5068856;28;20028;-84
2022/12/03 10:07:49;;;;;;;2.60;2.40;;;2.30;1.00;;;;;;5067066;28;20040;-84
2022/12/03 10:10:18;;;;;;;2.03;1.50;;;2.30;99.90;;;;;;5069163;28;20405;-84
2022/12/03 10:12:44;;;;;;;1.00;0.95;;;2.30;1.00;;;;;;5068544;28;20048;-85
2022/12/03 10:15:16;;;;;;;1.20;1.17;;;2.40;99.90;;;;;;5068084;28;20114;-84
2022/12/03 10:17:42;;;;;;;1.40;1.00;;;2.70;99.90;;;;;;5066571;28;20078;-84
2022/12/03 10:20:14;;;;;;;4.68;2.10;;;2.40;1.00;;;;;;5067444;28;20048;-84
2022/12/03 10:22:40;;;;;;;0.40;0.40;;;2.50;99.90;;;;;;5050661;28;20681;-84
2022/12/03 10:25:08;;;;;;;3.25;2.95;;;2.50;99.90;;;;;;5068890;28;20039;-84
2022/12/03 10:27:33;;;;;;;2.40;2.00;;;2.50;1.00;;;;;;5068864;28;20341;-84
2022/12/03 10:30:01;;;;;;;1.08;1.02;;;2.40;99.90;;;;;;5068474;28;20062;-84
2022/12/03 10:32:39;;;;;;;0.85;0.85;;;2.40;99.90;;;;;;5067044;28;20052;-84
2022/12/03 10:35:12;;;;;;;1.33;1.27;;;2.40;99.90;;;;;;5068083;28;20056;-84
2022/12/03 10:38:01;;;;;;;2.83;2.05;;;2.40;99.90;;;;;;5067646;28;20055;-84
2022/12/03 10:40:39;;;;;;;0.50;0.50;;;2.50;99.90;;;;;;5051060;28;20040;-84
2022/12/03 10:43:24;;;;;;;0.68;0.68;;;2.50;64.70;;;;;;5068759;28;20053;-85
2022/12/03 10:46:02;;;;;;;0.80;0.80;;;2.40;1.00;;;;;;5051724;28;20059;-84
2022/12/03 10:48:28;;;;;;;11.98;2.50;;;2.50;99.90;;;;;;5051235;28;20099;-84
2022/12/03 10:50:58;;;;;;;2.30;1.63;;;2.50;1.00;;;;;;5068621;28;20080;-84
2022/12/03 10:53:29;;;;;;;3.80;2.22;;;2.50;1.00;;;;;;5067775;28;20053;-84
2022/12/03 10:55:58;;;;;;;0.40;0.40;;;2.50;99.90;;;;;;5067425;28;20083;-84
2022/12/03 10:58:34;;;;;;;1.38;1.27;;;2.50;10.10;;;;;;5049048;28;20088;-84
2022/12/03 11:01:04;;;;;;;;;;;2.50;1.00;;;;;;5049420;28;20052;-84
2022/12/03 11:03:33;;;;;;;2.63;2.42;;;2.50;1.00;;;;;;5067650;28;19920;-84
2022/12/03 11:06:00;;;;;;;3.53;2.97;;;2.50;99.90;;;;;;5066590;28;20048;-84
2022/12/03 11:08:33;;;;;;;1.30;1.20;;;2.50;1.00;;;;;;5067482;28;20294;-84
2022/12/03 11:11:02;;;;;;;4.93;3.42;;;2.50;99.90;;;;;;5067562;28;20045;-84
2022/12/03 11:13:33;;;;;;;1.88;1.77;;;2.50;83.00;;;;;;5049449;28;20048;-84
2022/12/03 11:16:00;;;;;;;1.20;1.13;;;2.50;99.90;;;;;;5067314;28;20489;-84
2022/12/03 11:18:35;;;;;;;1.48;1.33;;;2.60;1.00;;;;;;5067654;28;20104;-84
2022/12/03 11:21:01;;;;;;;1.05;0.95;;;2.60;1.00;;;;;;5048738;28;20055;-84
2022/12/03 11:23:45;;;;;;;1.77;1.65;;;2.60;1.00;;;;;;5067145;28;20052;-84
2022/12/03 11:26:38;;;;;;;0.98;0.98;;;2.70;99.90;;;;;;5049419;28;20061;-84
2022/12/03 11:29:14;;;;;;;1.98;1.88;;;2.90;75.50;;;;;;5048262;28;20102;-84
2022/12/03 11:31:46;;;;;;;0.30;0.30;;;2.60;99.90;;;;;;5067264;28;20048;-84
2022/12/03 11:34:18;;;;;;;5.05;3.70;;;2.60;99.90;;;;;;5068098;28;20036;-84
2022/12/03 11:37:08;;;;;;;2.53;1.40;;;2.60;99.90;;;;;;5074527;28;20102;-84
2022/12/03 11:39:43;;;;;;;0.77;0.77;;;2.50;99.90;;;;;;5073032;28;20056;-84
2022/12/03 11:42:24;;;;;;;2.42;1.75;;;2.80;99.90;;;;;;5090179;28;20067;-84
2022/12/03 11:45:02;;;;;;;1.00;0.95;;;3.10;1.00;;;;;;5091266;28;20070;-85
2022/12/03 11:47:42;;;;;;;3.60;3.30;;;2.50;99.90;;;;;;5074105;28;20052;-84
2022/12/03 11:50:32;;;;;;;6.65;2.38;;;2.50;99.90;;;;;;5073619;28;20100;-84
2022/12/03 11:53:06;;;;;;;1.63;1.52;;;2.40;99.90;;;;;;5091399;28;20051;-84
2022/12/03 11:55:38;;;;;;;1.60;1.50;;;2.40;99.90;;;;;;5073825;28;20045;-84
2022/12/03 11:58:14;;;;;;;2.55;2.35;;;2.40;99.90;;;;;;5091771;28;20098;-84
2022/12/03 12:00:48;;;;;;;0.75;0.75;;;2.50;99.90;;;;;;5091456;28;20036;-84
2022/12/03 12:03:28;;;;;;;3.58;2.13;;;2.50;99.90;;;;;;5074474;28;20041;-84
2022/12/03 12:06:07;;;;;;;3.22;2.40;;;2.50;99.90;;;;;;5091489;28;20053;-84
2022/12/03 12:08:57;;;;;;;3.17;2.08;;;2.50;83.60;;;;;;5054086;28;20048;-84
2022/12/03 12:11:28;;;;;;;2.65;2.13;;;2.60;2.00;;;;;;5069727;28;20088;-84
2022/12/03 12:14:02;;;;;;;3.50;2.10;;;2.60;99.90;;;;;;5068694;28;20434;-84
2022/12/03 12:16:57;;;;;;;7.78;3.10;;;2.60;1.00;;;;;;5068605;28;20044;-84
2022/12/03 12:19:40;;;;;;;2.88;1.60;;;2.70;99.90;;;;;;5046159;28;20068;-84
2022/12/03 12:22:26;;;;;;;0.73;0.73;;;2.70;99.90;;;;;;5067636;28;20057;-84
2022/12/03 12:24:58;;;;;;;1.25;1.08;;;2.80;99.90;;;;;;5068230;28;20052;-84
2022/12/03 12:27:52;;;;;;;2.88;2.67;;;2.80;1.00;;;;;;5066897;28;20083;-84
2022/12/03 12:30:20;;;;;;;4.07;1.92;;;3.50;93.50;;;;;;5048818;28;20088;-84
2022/12/03 12:32:56;;;;;;;2.08;1.88;;;2.60;1.00;;;;;;5067133;28;20322;-84
2022/12/03 12:35:27;;;;;;;27.80;1.55;;;2.60;24.50;;;;;;5048844;28;20437;-84
2022/12/03 12:38:06;;;;;;;2.47;2.28;;;2.60;99.90;;;;;;5066169;28;20834;-84
2022/12/03 12:40:34;;;;;;;0.50;0.50;;;2.60;99.90;;;;;;5067830;28;20549;-84
2022/12/03 12:43:21;;;;;;;0.98;0.90;;;2.70;99.90;;;;;;5070142;28;20048;-84
2022/12/03 12:45:48;;;;;;;2.28;0.77;;;2.70;99.90;;;;;;5070435;28;20056;-84
2022/12/03 12:48:14;;;;;;;2.10;1.48;;;2.70;99.90;;;;;;5068667;28;20044;-84
2022/12/03 12:50:41;;;;;;;1.48;1.38;;;2.80;13.20;;;;;;5051304;28;20106;-84
2022/12/03 12:53:09;;;;;;;7.05;1.85;;;2.70;99.90;;;;;;5051350;28;20473;-84
2022/12/03 12:55:37;;;;;;;2.83;1.73;;;2.40;99.90;;;;;;5070055;28;20048;-84
2022/12/03 12:58:11;;;;;;;2.15;1.98;;;2.60;99.90;;;;;;5052069;28;20139;-84
2022/12/03 13:00:36;;;;;;;0.57;0.57;;;2.60;99.90;;;;;;5069328;28;20056;-84
2022/12/03 13:03:03;;;;;;;3.20;2.85;;;2.70;99.90;;;;;;5050334;28;20135;-84
2022/12/03 13:05:37;;;;;;;4.18;2.10;;;2.60;1.00;;;;;;5069005;28;20052;-84
2022/12/03 13:08:24;;;;;;;1.77;1.67;;;2.70;99.90;;;;;;5068435;28;20049;-84
2022/12/03 13:10:52;;;;;;;4.03;2.42;;;2.60;1.00;;;;;;5069637;28;20044;-84
2022/12/03 13:13:22;;;;;;;1.83;1.67;;;2.60;99.90;;;;;;5051666;28;20409;-84
2022/12/03 13:16:06;;;;;;;1.50;1.40;;;2.60;1.00;;;;;;5069603;28;20436;-84
2022/12/03 13:18:37;;;;;;;0.73;0.73;;;2.60;99.90;;;;;;5068854;28;20090;-84
2022/12/03 13:21:17;;;;;;;5.85;1.55;;;2.60;99.90;;;;;;5068439;28;20676;-84
2022/12/03 13:23:43;;;;;;;1.45;0.80;;;2.60;1.00;;;;;;5050388;28;20396;-84
2022/12/03 13:26:22;;;;;;;3.30;1.25;;;2.50;99.90;;;;;;5068522;28;20048;-84
2022/12/03 13:28:49;;;;;;;2.28;2.08;;;2.50;1.00;;;;;;5068811;28;20048;-84
2022/12/03 13:31:38;;;;;;;2.58;1.80;;;2.40;99.90;;;;;;5050179;28;20082;-84